This is the latest recevied weather packets stored in our database for station/object KC8P. If no packets are shown the sender has not sent any weather packets the latest 10 day(s).
| Time | Temp. | Humidity | Pressure | Rain* | Wind** | Luminosity | Snow |
|---|---|---|---|---|---|---|---|
| 1778276730 | 17.78° C | 37% | 1007.3 hPa | 0 mm | - | 378 W/m² | - |
| 1778276664 | 17.78° C | 39% | 1007.3 hPa | 0 mm | - | 386 W/m² | - |
| 1778276598 | 17.22° C | 40% | 1007.3 hPa | 0 mm | - | 128 W/m² | - |
| 1778276532 | 17.22° C | 38% | 1007.3 hPa | 0 mm | - | 127 W/m² | - |
| 1778276467 | 17.22° C | 38% | 1007.3 hPa | 0 mm | - | 200 W/m² | - |
| 1778276402 | 17.78° C | 37% | 1007.3 hPa | 0 mm | - | 260 W/m² | - |
| 1778276336 | 17.78° C | 38% | 1007.3 hPa | 0 mm | - | 319 W/m² | - |
| 1778276270 | 17.78° C | 37% | 1007.3 hPa | 0 mm | - | 229 W/m² | - |
| 1778276218 | 17.22° C | 44% | 1007.3 hPa | 0 mm | - | 439 W/m² | - |
| 1778276139 | 17.22° C | 45% | 1007.3 hPa | 0 mm | - | 446 W/m² | - |
| 1778276072 | 17.22° C | 45% | 1007.3 hPa | 0 mm | - | 433 W/m² | - |
| 1778276008 | 17.22° C | 46% | 1007.3 hPa | 0 mm | - | 426 W/m² | - |
| 1778275941 | 16.67° C | 47% | 1007.3 hPa | 0 mm | - | 422 W/m² | - |
| 1778275875 | 16.67° C | 43% | 1007.3 hPa | 0 mm | - | 178 W/m² | - |
| 1778275810 | 16.67° C | 47% | 1007.3 hPa | 0 mm | - | 423 W/m² | - |
| 1778275745 | 17.22° C | 47% | 1007.3 hPa | 0 mm | - | 437 W/m² | - |
| 1778275679 | 17.78° C | 46% | 1007.3 hPa | 0 mm | - | 451 W/m² | - |
| 1778275613 | 18.33° C | 43% | 1006.9 hPa | 0 mm | - | 461 W/m² | - |
| 1778275547 | 18.89° C | 40% | 1006.9 hPa | 0 mm | - | 468 W/m² | - |
| 1778275481 | 18.89° C | 36% | 1006.6 hPa | 0 mm | - | 491 W/m² | - |
| 1778275416 | 17.78° C | 36% | 1007.3 hPa | 0 mm | - | 498 W/m² | - |
| 1778275350 | 17.78° C | 37% | 1007.3 hPa | 0 mm | - | 497 W/m² | - |
| 1778275284 | 17.78° C | 36% | 1007.3 hPa | 0 mm | - | 493 W/m² | - |
| 1778275220 | 17.78° C | 37% | 1007.3 hPa | 0 mm | - | 501 W/m² | - |
| 1778275153 | 17.78° C | 36% | 1007.3 hPa | 0 mm | - | 514 W/m² | - |
* Rain latest hour (hover to see other rain measurements)
** Current wind speed in m/s (hover to see current wind gust speed)